Time;durP1;ratioP1;P1;durP2;ratioP2;P2;SDS_P1;SDS_P2;PMS_P1;PMS_P2;Temp;Humidity;BMP_temperature;BMP_pressure;BME280_temperature;BME280_humidity;BME280_pressure;Samples;Min_cycle;Max_cycle;Signal;HPM_P1;HPM_P2
2023/07/19 00:01:05;;;;;;;7.73;7.63;;;14.60;99.90;;;;;;5022776;28;20476;-67
2023/07/19 00:03:32;;;;;;;7.50;7.40;;;14.60;99.90;;;;;;5020750;28;20464;-66
2023/07/19 00:06:02;;;;;;;8.27;8.17;;;14.50;99.90;;;;;;5025277;28;20500;-67
2023/07/19 00:08:32;;;;;;;7.93;7.83;;;14.50;99.90;;;;;;5030393;28;20460;-66
2023/07/19 00:10:59;;;;;;;8.23;8.13;;;14.50;99.90;;;;;;5024595;28;20468;-66
2023/07/19 00:13:27;;;;;;;6.90;6.80;;;14.50;99.90;;;;;;5029769;28;20448;-66
2023/07/19 00:15:54;;;;;;;6.73;6.63;;;14.50;99.90;;;;;;5019898;28;20508;-66
2023/07/19 00:18:22;;;;;;;7.23;7.13;;;14.50;99.90;;;;;;5030125;28;20492;-66
2023/07/19 00:20:49;;;;;;;7.83;7.73;;;14.50;99.90;;;;;;5028802;28;21037;-65
2023/07/19 00:23:16;;;;;;;7.63;7.53;;;14.60;99.90;;;;;;5026879;28;20461;-66
2023/07/19 00:25:45;;;;;;;7.73;7.63;;;14.80;99.90;;;;;;5030112;28;20511;-66
2023/07/19 00:28:12;;;;;;;7.60;7.50;;;15.00;99.90;;;;;;5018568;28;20468;-66
2023/07/19 00:30:39;;;;;;;8.20;8.10;;;15.10;99.90;;;;;;5026164;28;20924;-66
2023/07/19 00:33:07;;;;;;;8.03;7.93;;;15.00;99.90;;;;;;5030296;28;20461;-66
2023/07/19 00:35:33;;;;;;;8.80;8.70;;;14.90;99.90;;;;;;5026327;28;20491;-65
2023/07/19 00:38:01;;;;;;;8.43;8.33;;;14.80;99.90;;;;;;5025136;28;21338;-65
2023/07/19 00:40:32;;;;;;;8.10;8.00;;;14.70;99.90;;;;;;5022712;28;20554;-66
2023/07/19 00:43:01;;;;;;;8.20;8.10;;;14.60;99.90;;;;;;5026415;28;20880;-65
2023/07/19 00:45:29;;;;;;;8.47;8.37;;;14.50;99.90;;;;;;5025587;28;20470;-67
2023/07/19 00:47:56;;;;;;;8.03;7.93;;;14.40;99.90;;;;;;5025889;28;20468;-66
2023/07/19 00:50:24;;;;;;;8.20;8.10;;;14.40;99.90;;;;;;5025479;28;20464;-66
2023/07/19 00:52:53;;;;;;;7.50;7.40;;;14.30;99.90;;;;;;5029708;28;20457;-66
2023/07/19 00:55:21;;;;;;;7.80;7.70;;;14.30;99.90;;;;;;5020783;28;20778;-66
2023/07/19 00:57:48;;;;;;;7.20;7.10;;;14.10;99.90;;;;;;5029218;28;20476;-66
2023/07/19 01:00:19;;;;;;;7.60;7.50;;;14.10;99.90;;;;;;5026847;28;20979;-65
2023/07/19 01:02:47;;;;;;;7.07;6.97;;;14.00;99.90;;;;;;5028330;28;20979;-65
2023/07/19 01:05:14;;;;;;;6.90;6.80;;;13.90;99.90;;;;;;5022802;28;20472;-66
2023/07/19 01:07:42;;;;;;;6.63;6.53;;;13.90;99.90;;;;;;5028128;28;20476;-65
2023/07/19 01:10:12;;;;;;;6.73;6.63;;;13.90;99.90;;;;;;5029214;28;20486;-66
2023/07/19 01:12:39;;;;;;;6.70;6.60;;;14.00;99.90;;;;;;5022015;28;20468;-65
2023/07/19 01:15:09;;;;;;;7.10;7.00;;;14.00;99.90;;;;;;5028703;28;20575;-67
2023/07/19 01:17:37;;;;;;;7.77;7.67;;;14.00;99.90;;;;;;5028999;28;20501;-65
2023/07/19 01:20:08;;;;;;;7.20;7.10;;;14.00;99.90;;;;;;5028879;28;20492;-65
2023/07/19 01:22:36;;;;;;;7.17;7.07;;;14.00;99.90;;;;;;5014704;28;20500;-67
2023/07/19 01:25:03;;;;;;;7.23;7.13;;;14.00;99.90;;;;;;5023498;28;20453;-66
2023/07/19 01:27:30;;;;;;;7.87;7.77;;;14.00;99.90;;;;;;5027244;28;21034;-65
2023/07/19 01:29:57;;;;;;;7.30;7.20;;;14.00;99.90;;;;;;5026689;28;20465;-66
2023/07/19 01:32:25;;;;;;;7.50;7.40;;;14.00;99.90;;;;;;5028724;28;20840;-65
2023/07/19 01:34:52;;;;;;;7.70;7.60;;;14.00;99.90;;;;;;5024917;28;20465;-64
2023/07/19 01:37:20;;;;;;;7.73;7.63;;;14.00;99.90;;;;;;5024407;28;20463;-66
2023/07/19 01:39:50;;;;;;;7.10;7.00;;;14.10;99.90;;;;;;5027980;28;20514;-65
2023/07/19 01:42:17;;;;;;;7.30;7.20;;;14.30;99.90;;;;;;5019202;28;20467;-65
2023/07/19 01:44:44;;;;;;;6.50;6.40;;;14.10;99.90;;;;;;5028644;28;20588;-66
2023/07/19 01:47:12;;;;;;;6.53;6.43;;;14.00;99.90;;;;;;5022710;28;20461;-66
2023/07/19 01:49:40;;;;;;;6.87;6.77;;;13.90;99.90;;;;;;5022463;28;20863;-66
2023/07/19 01:52:07;;;;;;;6.43;6.33;;;13.90;99.90;;;;;;5021201;28;20483;-67
2023/07/19 01:54:35;;;;;;;6.50;6.40;;;13.90;99.90;;;;;;5012289;28;20462;-66
2023/07/19 01:57:06;;;;;;;6.57;6.47;;;13.90;99.90;;;;;;5017795;28;20576;-66
2023/07/19 01:59:33;;;;;;;6.10;6.00;;;13.90;99.90;;;;;;5022771;28;20484;-65
2023/07/19 02:02:00;;;;;;;6.77;6.67;;;13.90;99.90;;;;;;5026784;28;20456;-66
2023/07/19 02:04:27;;;;;;;6.47;6.37;;;13.70;99.90;;;;;;5028065;28;20463;-66
2023/07/19 02:06:54;;;;;;;6.30;6.20;;;13.50;99.90;;;;;;5020852;28;20476;-65
2023/07/19 02:09:21;;;;;;;6.53;6.43;;;13.40;99.90;;;;;;5028095;28;20472;-67
2023/07/19 02:11:48;;;;;;;6.10;6.00;;;13.50;99.90;;;;;;5022791;28;20522;-65
2023/07/19 02:14:16;;;;;;;6.00;5.90;;;13.50;99.90;;;;;;5027883;28;20465;-65
2023/07/19 02:16:43;;;;;;;5.77;5.67;;;13.50;99.90;;;;;;5027502;28;20882;-67
2023/07/19 02:19:10;;;;;;;5.27;5.17;;;13.40;99.90;;;;;;5024746;28;20832;-67
2023/07/19 02:21:37;;;;;;;5.40;5.30;;;13.30;99.90;;;;;;5021195;28;20608;-66
2023/07/19 02:24:05;;;;;;;5.40;5.30;;;13.40;99.90;;;;;;5018549;28;20476;-66
2023/07/19 02:26:32;;;;;;;5.80;5.70;;;13.60;99.90;;;;;;5027650;28;21068;-66
2023/07/19 02:28:59;;;;;;;5.53;5.43;;;13.70;99.90;;;;;;5027227;28;20834;-66
2023/07/19 02:31:27;;;;;;;5.20;5.10;;;13.90;99.90;;;;;;5020763;28;20465;-67
2023/07/19 02:33:55;;;;;;;6.03;5.93;;;14.00;99.90;;;;;;5027255;28;20495;-66
2023/07/19 02:36:23;;;;;;;5.80;5.70;;;14.20;99.90;;;;;;5023232;28;20472;-67
2023/07/19 02:38:50;;;;;;;6.50;6.40;;;14.30;99.90;;;;;;5027952;28;20721;-67
2023/07/19 02:41:17;;;;;;;7.07;6.97;;;14.40;99.90;;;;;;5019382;28;20461;-68
2023/07/19 02:43:45;;;;;;;7.17;7.07;;;14.60;99.90;;;;;;5027541;28;20460;-67
2023/07/19 02:46:12;;;;;;;7.80;7.70;;;14.80;99.90;;;;;;5018120;28;20495;-67
2023/07/19 02:48:40;;;;;;;7.00;6.90;;;15.00;99.90;;;;;;5024032;28;20951;-66
2023/07/19 02:51:08;;;;;;;7.40;7.30;;;15.00;99.90;;;;;;5023813;28;20548;-67
2023/07/19 02:53:35;;;;;;;7.23;7.13;;;15.10;99.90;;;;;;5024923;28;20465;-66
2023/07/19 02:56:03;;;;;;;8.13;8.03;;;15.10;99.90;;;;;;5018283;28;20892;-66
2023/07/19 02:58:30;;;;;;;8.13;8.03;;;15.20;99.90;;;;;;5027027;28;20488;-67
2023/07/19 03:00:56;;;;;;;7.80;7.70;;;15.10;99.90;;;;;;5027492;28;20495;-67
2023/07/19 03:03:23;;;;;;;8.43;8.33;;;15.20;99.90;;;;;;5027386;28;20465;-68
2023/07/19 03:05:53;;;;;;;8.70;8.60;;;15.20;99.90;;;;;;5020983;28;20468;-68
2023/07/19 03:08:20;;;;;;;8.53;8.43;;;15.20;99.90;;;;;;5027922;28;20464;-67
2023/07/19 03:10:48;;;;;;;8.30;8.20;;;15.20;99.90;;;;;;5031345;28;20836;-67
2023/07/19 03:13:18;;;;;;;9.03;8.83;;;15.20;99.90;;;;;;5019626;28;21112;-67
2023/07/19 03:15:47;;;;;;;8.57;8.47;;;15.20;99.90;;;;;;5031139;28;20496;-67
2023/07/19 03:18:15;;;;;;;8.40;8.30;;;15.20;99.90;;;;;;5026860;28;20460;-66
2023/07/19 03:20:42;;;;;;;8.30;8.20;;;15.20;99.90;;;;;;5030992;28;21014;-67
2023/07/19 03:23:10;;;;;;;9.20;9.00;;;15.30;99.90;;;;;;5031344;28;20471;-67
2023/07/19 03:25:36;;;;;;;8.60;8.50;;;15.20;99.90;;;;;;5022005;28;20468;-66
2023/07/19 03:28:04;;;;;;;8.63;8.53;;;15.20;99.90;;;;;;5031596;28;20802;-67
2023/07/19 03:30:31;;;;;;;9.60;9.40;;;15.20;99.90;;;;;;5030516;28;20538;-67
2023/07/19 03:32:58;;;;;;;9.20;9.00;;;15.20;99.90;;;;;;5017938;28;20467;-66
2023/07/19 03:35:25;;;;;;;9.23;9.03;;;15.30;99.90;;;;;;5028239;28;20459;-67
2023/07/19 03:37:52;;;;;;;8.90;8.77;;;15.20;99.90;;;;;;5025438;28;20465;-66
2023/07/19 03:40:24;;;;;;;9.47;9.27;;;15.10;99.90;;;;;;5028165;28;20526;-67
2023/07/19 03:42:51;;;;;;;8.70;8.60;;;15.10;99.90;;;;;;5020897;28;20541;-66
2023/07/19 03:45:18;;;;;;;8.70;8.60;;;15.00;99.90;;;;;;5030565;28;20467;-67
2023/07/19 03:47:45;;;;;;;9.10;8.90;;;15.00;99.90;;;;;;5027254;28;20831;-67
2023/07/19 03:50:12;;;;;;;9.00;8.80;;;15.10;99.90;;;;;;5021857;28;20457;-66
2023/07/19 03:52:39;;;;;;;8.57;8.47;;;15.20;99.90;;;;;;5023018;28;20864;-67
2023/07/19 03:55:07;;;;;;;8.17;8.07;;;15.30;99.90;;;;;;5025041;28;20494;-66
2023/07/19 03:57:36;;;;;;;8.83;8.73;;;15.30;99.90;;;;;;5020561;28;20489;-67
2023/07/19 04:00:03;;;;;;;8.03;7.93;;;15.40;99.90;;;;;;5024993;28;20819;-67
2023/07/19 04:02:31;;;;;;;8.60;8.50;;;15.40;99.90;;;;;;5031033;28;20939;-67
2023/07/19 04:04:59;;;;;;;8.53;8.43;;;15.50;99.90;;;;;;5020085;28;20555;-68
2023/07/19 04:07:27;;;;;;;8.87;8.77;;;15.60;99.90;;;;;;5024692;28;20472;-67
2023/07/19 04:09:55;;;;;;;9.20;9.00;;;15.80;99.90;;;;;;5024703;28;20820;-66
2023/07/19 04:12:23;;;;;;;9.20;9.00;;;15.90;99.90;;;;;;5028918;28;20468;-66
2023/07/19 04:14:51;;;;;;;9.10;8.90;;;16.00;99.90;;;;;;5025183;28;20873;-68
2023/07/19 04:17:18;;;;;;;9.40;9.20;;;16.10;99.90;;;;;;5017594;28;20464;-67
2023/07/19 04:19:45;;;;;;;9.07;8.87;;;16.20;99.90;;;;;;5029486;28;20481;-66
2023/07/19 04:22:15;;;;;;;9.20;9.00;;;16.30;99.90;;;;;;5030119;28;20920;-66
2023/07/19 04:24:42;;;;;;;9.53;9.33;;;16.40;99.90;;;;;;5025523;28;20963;-67
2023/07/19 04:27:09;;;;;;;9.60;9.40;;;16.30;99.90;;;;;;5026241;28;20465;-67
2023/07/19 04:29:36;;;;;;;9.73;9.53;;;16.30;99.90;;;;;;5018947;28;20472;-68
2023/07/19 04:32:05;;;;;;;10.37;10.17;;;16.40;99.90;;;;;;5028602;28;20464;-66
2023/07/19 04:34:33;;;;;;;10.70;10.50;;;16.50;99.90;;;;;;5029808;28;20465;-67
2023/07/19 04:37:00;;;;;;;10.70;10.50;;;16.60;99.90;;;;;;5030486;28;20468;-66
2023/07/19 04:39:27;;;;;;;10.30;10.10;;;16.70;99.90;;;;;;5023364;28;20470;-67
2023/07/19 04:41:53;;;;;;;10.47;10.27;;;16.80;99.90;;;;;;5021479;28;20475;-67
2023/07/19 04:44:20;;;;;;;10.47;10.27;;;16.70;99.90;;;;;;5026218;28;20465;-67
2023/07/19 04:46:47;;;;;;;10.80;10.60;;;16.70;99.90;;;;;;5024353;28;20963;-67
2023/07/19 04:49:15;;;;;;;11.07;10.77;;;16.80;99.90;;;;;;5017619;28;21118;-67
2023/07/19 04:51:42;;;;;;;10.63;10.43;;;16.90;99.90;;;;;;5029303;28;20555;-66
2023/07/19 04:54:10;;;;;;;10.30;10.10;;;17.00;99.90;;;;;;5027479;28;20468;-68
2023/07/19 04:56:37;;;;;;;10.23;10.03;;;17.00;99.90;;;;;;5023450;28;20563;-69
2023/07/19 04:59:03;;;;;;;9.70;9.50;;;17.00;99.90;;;;;;5026750;28;20548;-66
2023/07/19 05:01:30;;;;;;;9.60;9.40;;;17.10;99.90;;;;;;5016937;28;20515;-68
2023/07/19 05:03:58;;;;;;;9.43;9.23;;;17.20;99.90;;;;;;5017366;28;20453;-67
2023/07/19 05:06:26;;;;;;;9.50;9.30;;;17.30;99.90;;;;;;5019488;28;20975;-68
2023/07/19 05:08:53;;;;;;;10.00;9.80;;;17.30;99.90;;;;;;5029142;28;20462;-68
2023/07/19 05:11:20;;;;;;;10.17;9.97;;;17.40;99.90;;;;;;5022709;28;20968;-67
2023/07/19 05:13:47;;;;;;;10.13;9.93;;;17.30;99.90;;;;;;5028311;28;20453;-67
2023/07/19 05:16:14;;;;;;;9.80;9.60;;;17.20;99.90;;;;;;5023216;28;20489;-68
2023/07/19 05:18:45;;;;;;;9.90;9.70;;;17.30;99.90;;;;;;5022359;28;20500;-67
2023/07/19 05:21:20;;;;;;;10.43;10.23;;;17.50;99.90;;;;;;5024581;28;20503;-66
2023/07/19 05:23:49;;;;;;;10.37;10.17;;;17.70;99.90;;;;;;5017591;28;20469;-67
2023/07/19 05:26:15;;;;;;;10.30;10.10;;;17.80;99.90;;;;;;5026462;28;20488;-68
2023/07/19 05:28:42;;;;;;;10.10;9.90;;;17.90;99.90;;;;;;5027834;28;20460;-67
2023/07/19 05:31:09;;;;;;;10.03;9.83;;;18.00;99.90;;;;;;5017379;28;20461;-67
2023/07/19 05:33:36;;;;;;;10.43;10.23;;;17.90;99.90;;;;;;5021511;28;20469;-68
2023/07/19 05:36:03;;;;;;;10.40;10.20;;;17.80;99.90;;;;;;5018776;28;20489;-67
2023/07/19 05:38:32;;;;;;;10.13;9.93;;;17.80;99.90;;;;;;5026960;28;20829;-67
2023/07/19 05:41:02;;;;;;;10.50;10.30;;;18.10;99.90;;;;;;5027040;28;21009;-67
2023/07/19 05:43:32;;;;;;;10.43;10.23;;;18.20;99.90;;;;;;5029036;28;20847;-67
2023/07/19 05:46:04;;;;;;;10.50;10.30;;;18.40;99.90;;;;;;5023435;28;20864;-67
2023/07/19 05:48:32;;;;;;;10.70;10.50;;;18.50;99.90;;;;;;5025358;28;20466;-66
2023/07/19 05:50:59;;;;;;;10.97;10.70;;;18.50;99.90;;;;;;5019369;28;20465;-68
2023/07/19 05:53:27;;;;;;;11.60;11.30;;;18.50;99.90;;;;;;5023098;28;20465;-67
2023/07/19 05:55:54;;;;;;;12.40;12.00;;;18.50;99.90;;;;;;5016705;28;20568;-67
2023/07/19 05:58:22;;;;;;;11.23;10.93;;;18.20;99.90;;;;;;5018389;28;20485;-67
2023/07/19 06:00:49;;;;;;;11.50;11.20;;;18.10;99.90;;;;;;5023069;28;20779;-67
2023/07/19 06:03:17;;;;;;;11.67;11.37;;;18.30;99.90;;;;;;5024532;28;20465;-67
2023/07/19 06:05:44;;;;;;;10.80;10.60;;;18.40;99.90;;;;;;5020021;28;20464;-66
2023/07/19 06:08:11;;;;;;;12.40;12.10;;;18.40;99.90;;;;;;5025719;28;20491;-66
2023/07/19 06:10:38;;;;;;;12.00;11.70;;;18.50;99.90;;;;;;5019020;28;20462;-67
2023/07/19 06:13:05;;;;;;;12.67;12.27;;;18.70;99.90;;;;;;5020151;28;20460;-67
2023/07/19 06:15:33;;;;;;;11.60;11.30;;;18.80;99.90;;;;;;5022030;28;20485;-67
2023/07/19 06:18:01;;;;;;;11.70;11.40;;;18.60;99.90;;;;;;5020219;28;20878;-67
2023/07/19 06:20:29;;;;;;;12.30;12.00;;;18.70;99.90;;;;;;5023458;28;20481;-69
2023/07/19 06:22:55;;;;;;;12.27;11.97;;;18.80;99.90;;;;;;5023708;28;20965;-67
2023/07/19 06:25:22;;;;;;;12.20;11.90;;;18.80;99.90;;;;;;5019609;28;20504;-66
2023/07/19 06:27:49;;;;;;;12.27;11.97;;;18.70;99.90;;;;;;5025348;28;20467;-67
2023/07/19 06:30:17;;;;;;;11.83;11.53;;;18.60;99.90;;;;;;5024138;28;21266;-67
2023/07/19 06:32:45;;;;;;;12.20;11.90;;;18.80;99.90;;;;;;5017535;28;20491;-67
2023/07/19 06:35:12;;;;;;;12.73;12.33;;;19.10;99.90;;;;;;5023503;28;20543;-67
2023/07/19 06:37:39;;;;;;;12.20;11.90;;;19.30;99.90;;;;;;5022846;28;20846;-66
2023/07/19 06:40:07;;;;;;;12.10;11.80;;;19.30;99.90;;;;;;5013855;28;21002;-67
2023/07/19 06:42:35;;;;;;;11.93;11.63;;;19.70;99.90;;;;;;5024800;28;20484;-67
2023/07/19 06:45:01;;;;;;;12.00;11.70;;;19.90;99.90;;;;;;5007045;28;20496;-67
2023/07/19 06:47:29;;;;;;;12.00;11.70;;;19.90;99.90;;;;;;5015637;28;20463;-68
2023/07/19 06:49:58;;;;;;;12.90;12.50;;;19.80;99.90;;;;;;5021940;28;20465;-66
2023/07/19 06:52:26;;;;;;;12.60;12.20;;;19.70;99.90;;;;;;5021487;28;20462;-67
2023/07/19 06:54:53;;;;;;;12.73;12.33;;;19.70;99.90;;;;;;5020986;28;20527;-67
2023/07/19 06:57:20;;;;;;;12.73;12.33;;;19.80;99.90;;;;;;5019493;28;20483;-66
2023/07/19 06:59:49;;;;;;;15.90;15.30;;;19.90;99.90;;;;;;5015520;28;20456;-67
2023/07/19 07:02:18;;;;;;;23.10;21.50;;;19.70;99.90;;;;;;5021316;28;20903;-67
2023/07/19 07:04:46;;;;;;;22.97;21.30;;;19.60;99.90;;;;;;5011402;28;20582;-66
2023/07/19 07:07:15;;;;;;;22.00;20.50;;;19.40;99.90;;;;;;5018073;28;20872;-68
2023/07/19 07:09:42;;;;;;;22.37;20.87;;;19.10;99.90;;;;;;5018937;28;20457;-67
2023/07/19 07:12:10;;;;;;;22.90;21.37;;;18.90;99.90;;;;;;5019588;28;20535;-66
2023/07/19 07:14:37;;;;;;;21.60;20.20;;;18.70;99.90;;;;;;5017660;28;20568;-66
2023/07/19 07:17:05;;;;;;;19.33;18.23;;;18.70;99.90;;;;;;5023463;28;20465;-67
2023/07/19 07:19:33;;;;;;;20.23;19.03;;;18.90;99.90;;;;;;5022883;28;20871;-67
2023/07/19 07:22:00;;;;;;;19.50;18.40;;;18.80;99.90;;;;;;5009721;28;20550;-68
2023/07/19 07:24:28;;;;;;;19.60;18.50;;;18.90;99.90;;;;;;5015677;28;20492;-66
2023/07/19 07:26:55;;;;;;;19.27;18.17;;;18.90;99.90;;;;;;5015816;28;20476;-66
2023/07/19 07:29:22;;;;;;;17.70;16.80;;;18.90;99.90;;;;;;5018460;28;20498;-69
2023/07/19 07:31:49;;;;;;;17.13;16.33;;;18.90;99.90;;;;;;5022325;28;20523;-68
2023/07/19 07:34:16;;;;;;;18.10;17.20;;;19.00;99.90;;;;;;5022729;28;20464;-67
2023/07/19 07:36:43;;;;;;;18.47;17.57;;;18.80;99.90;;;;;;5011398;28;20969;-67
2023/07/19 07:39:11;;;;;;;16.90;16.10;;;18.80;99.90;;;;;;5021204;28;20469;-67
2023/07/19 07:41:39;;;;;;;15.00;14.40;;;18.70;99.90;;;;;;5018517;28;20492;-68
2023/07/19 07:44:06;;;;;;;15.90;15.20;;;18.50;99.90;;;;;;5021054;28;20468;-66
2023/07/19 07:46:33;;;;;;;18.00;17.00;;;18.30;99.90;;;;;;5012606;28;20464;-67
2023/07/19 07:49:01;;;;;;;17.80;16.80;;;18.20;99.90;;;;;;5018847;28;20461;-65
2023/07/19 07:51:29;;;;;;;17.40;16.50;;;18.10;99.90;;;;;;5020975;28;20477;-67
2023/07/19 07:53:55;;;;;;;17.40;16.50;;;18.10;99.90;;;;;;5018099;28;20453;-66
2023/07/19 07:56:24;;;;;;;17.00;16.20;;;18.10;99.90;;;;;;5021811;28;21323;-67
2023/07/19 07:58:53;;;;;;;16.40;15.60;;;18.30;99.90;;;;;;5017607;28;21037;-68
2023/07/19 08:01:19;;;;;;;16.50;15.70;;;18.50;99.90;;;;;;5020328;28;21127;-67
2023/07/19 08:03:46;;;;;;;15.90;15.20;;;18.60;99.90;;;;;;5015969;28;20955;-67
2023/07/19 08:06:13;;;;;;;15.27;14.57;;;18.60;99.90;;;;;;5021370;28;20504;-68
2023/07/19 08:08:40;;;;;;;14.70;14.10;;;18.50;99.90;;;;;;5024893;28;20823;-68
2023/07/19 08:11:09;;;;;;;12.80;12.40;;;18.40;99.90;;;;;;5021583;28;20465;-67
2023/07/19 08:13:35;;;;;;;12.97;12.47;;;18.40;99.90;;;;;;5024763;28;20959;-67
2023/07/19 08:16:06;;;;;;;12.40;12.00;;;18.30;99.90;;;;;;5023121;28;21145;-66
2023/07/19 08:18:35;;;;;;;17.50;16.60;;;18.30;99.90;;;;;;5020829;28;20469;-66
2023/07/19 08:21:02;;;;;;;17.43;16.53;;;18.40;99.90;;;;;;5024015;28;20858;-68
2023/07/19 08:23:29;;;;;;;17.20;16.40;;;18.30;99.90;;;;;;5018463;28;20475;-67
2023/07/19 08:25:56;;;;;;;17.40;16.50;;;18.30;99.90;;;;;;5020107;28;20878;-67
2023/07/19 08:28:24;;;;;;;17.10;16.20;;;18.30;99.90;;;;;;5022648;28;20938;-66
2023/07/19 08:30:51;;;;;;;17.37;16.47;;;18.50;99.90;;;;;;5019933;28;20453;-67
2023/07/19 08:33:19;;;;;;;16.40;15.60;;;18.60;99.90;;;;;;5022589;28;20457;-66
2023/07/19 08:35:46;;;;;;;15.07;14.47;;;18.80;99.90;;;;;;5020725;28;20471;-67
2023/07/19 08:38:13;;;;;;;15.30;14.70;;;19.20;99.90;;;;;;5026297;28;20468;-66
2023/07/19 08:40:40;;;;;;;16.30;15.50;;;19.10;99.90;;;;;;5022299;28;21000;-67
2023/07/19 08:43:07;;;;;;;17.23;16.43;;;18.90;99.90;;;;;;5021994;28;20468;-68
2023/07/19 08:45:36;;;;;;;16.47;15.70;;;18.60;99.90;;;;;;5021069;28;20473;-68
2023/07/19 08:48:05;;;;;;;15.90;15.20;;;18.60;99.90;;;;;;5012191;28;20464;-67
2023/07/19 08:50:34;;;;;;;15.83;15.13;;;18.60;99.90;;;;;;5017862;28;20480;-66
2023/07/19 08:53:02;;;;;;;15.70;15.00;;;18.60;99.90;;;;;;5023449;28;20889;-66
2023/07/19 08:55:31;;;;;;;14.60;14.00;;;18.60;99.90;;;;;;5025983;28;20465;-68
2023/07/19 08:57:59;;;;;;;14.70;14.10;;;18.80;99.90;;;;;;5022557;28;21081;-66
2023/07/19 09:00:28;;;;;;;16.70;16.00;;;18.90;99.90;;;;;;5015826;28;20465;-67
2023/07/19 09:02:55;;;;;;;15.90;15.20;;;19.10;99.90;;;;;;5023690;28;20488;-67
2023/07/19 09:05:22;;;;;;;16.10;15.40;;;19.40;99.90;;;;;;5026195;28;21070;-67
2023/07/19 09:07:50;;;;;;;15.90;15.20;;;19.80;99.90;;;;;;5023845;28;20472;-68
2023/07/19 09:10:19;;;;;;;16.50;15.77;;;20.20;99.90;;;;;;5025694;28;20983;-67
2023/07/19 09:12:46;;;;;;;17.00;16.20;;;20.70;99.90;;;;;;5016940;28;20553;-67
2023/07/19 09:15:14;;;;;;;17.80;17.00;;;20.90;99.90;;;;;;5027836;28;20485;-66
2023/07/19 09:17:44;;;;;;;17.60;16.80;;;20.80;99.90;;;;;;5026968;28;20460;-66
2023/07/19 09:20:12;;;;;;;17.10;16.40;;;20.80;99.90;;;;;;5027321;28;20944;-66
2023/07/19 09:22:39;;;;;;;17.97;17.17;;;21.20;99.90;;;;;;5021400;28;20489;-66
2023/07/19 09:25:10;;;;;;;18.30;17.50;;;21.40;99.90;;;;;;5020259;28;20867;-67
2023/07/19 09:27:41;;;;;;;17.40;16.70;;;22.00;99.90;;;;;;5023248;28;20497;-67
2023/07/19 09:30:11;;;;;;;16.60;15.90;;;22.60;99.90;;;;;;5026922;28;20963;-66
2023/07/19 09:32:38;;;;;;;17.63;16.73;;;23.30;99.90;;;;;;5023560;28;20461;-67
2023/07/19 09:35:07;;;;;;;16.30;15.60;;;23.90;99.90;;;;;;5023764;28;20481;-69
2023/07/19 09:37:34;;;;;;;16.30;15.70;;;24.70;99.90;;;;;;5019938;28;20460;-66
2023/07/19 09:40:02;;;;;;;16.00;15.40;;;25.10;99.90;;;;;;5025983;28;20461;-67
2023/07/19 09:42:32;;;;;;;17.03;16.30;;;25.00;99.90;;;;;;5014035;28;20492;-67
2023/07/19 09:45:00;;;;;;;16.83;16.13;;;25.20;99.90;;;;;;5026193;28;20476;-67
2023/07/19 09:47:28;;;;;;;16.10;15.50;;;25.30;99.90;;;;;;5027061;28;20453;-68
2023/07/19 09:49:56;;;;;;;16.30;15.70;;;25.50;99.90;;;;;;5017841;28;20475;-68
2023/07/19 09:52:25;;;;;;;16.60;15.97;;;25.30;99.90;;;;;;5020235;28;21045;-68
2023/07/19 09:54:54;;;;;;;16.77;16.10;;;24.50;99.90;;;;;;5022974;28;20826;-68
2023/07/19 09:57:22;;;;;;;16.00;15.40;;;24.50;99.90;;;;;;5021735;28;21025;-68
2023/07/19 09:59:53;;;;;;;15.50;15.00;;;24.80;99.90;;;;;;5019814;28;20548;-67
2023/07/19 10:02:22;;;;;;;15.77;15.17;;;25.10;99.90;;;;;;5024006;28;20722;-68
2023/07/19 10:04:50;;;;;;;15.87;15.27;;;25.70;99.90;;;;;;5022792;28;20464;-67
2023/07/19 10:07:20;;;;;;;16.00;15.40;;;25.50;99.90;;;;;;5024168;28;20453;-68
2023/07/19 10:09:49;;;;;;;16.50;15.90;;;25.80;99.90;;;;;;5013194;28;20468;-67
2023/07/19 10:12:24;;;;;;;16.23;15.63;;;26.40;99.90;;;;;;5016966;28;20523;-67
2023/07/19 10:14:59;;;;;;;15.73;15.20;;;26.10;99.90;;;;;;5019891;28;20546;-68
2023/07/19 10:17:26;;;;;;;16.97;16.37;;;26.40;99.90;;;;;;5018326;28;20487;-67
2023/07/19 10:20:07;;;;;;;16.00;15.40;;;26.70;99.90;;;;;;5019500;28;20477;-66
2023/07/19 10:22:50;;;;;;;16.73;16.13;;;26.80;99.90;;;;;;5024216;28;20503;-67
2023/07/19 10:25:22;;;;;;;16.10;15.50;;;26.50;99.90;;;;;;5021926;28;21038;-66
2023/07/19 10:28:01;;;;;;;15.40;14.90;;;26.00;99.90;;;;;;5025194;28;20495;-68
2023/07/19 10:30:49;;;;;;;15.50;15.00;;;25.30;99.90;;;;;;5022443;28;20477;-66
2023/07/19 10:33:19;;;;;;;15.57;15.07;;;25.20;99.90;;;;;;5020434;28;20469;-67
2023/07/19 10:35:47;;;;;;;15.90;15.40;;;25.50;99.90;;;;;;5023082;28;20944;-68
2023/07/19 10:38:15;;;;;;;16.33;15.73;;;26.30;99.90;;;;;;5025748;28;20816;-67
2023/07/19 10:40:45;;;;;;;16.30;15.70;;;26.60;99.90;;;;;;5020670;28;20964;-69
2023/07/19 10:43:13;;;;;;;15.40;14.90;;;26.30;99.90;;;;;;5017073;28;20506;-68
2023/07/19 10:45:40;;;;;;;15.20;14.70;;;26.40;99.90;;;;;;5023747;28;20895;-68
2023/07/19 10:48:09;;;;;;;16.70;16.10;;;26.80;99.90;;;;;;5019861;28;20477;-68
2023/07/19 10:50:36;;;;;;;15.93;15.43;;;27.40;99.90;;;;;;5025240;28;20460;-69
2023/07/19 10:53:04;;;;;;;16.00;15.40;;;27.20;99.90;;;;;;5019767;28;20465;-69
2023/07/19 10:55:31;;;;;;;15.30;14.80;;;26.40;99.90;;;;;;5023733;28;20479;-68
2023/07/19 10:57:59;;;;;;;15.83;15.30;;;26.40;99.90;;;;;;5024621;28;20486;-68
2023/07/19 11:00:26;;;;;;;16.50;15.90;;;26.90;99.90;;;;;;5016875;28;20460;-67
2023/07/19 11:02:55;;;;;;;15.60;15.10;;;27.30;99.90;;;;;;5022760;28;20499;-67
2023/07/19 11:05:23;;;;;;;17.20;16.60;;;27.30;99.90;;;;;;5020352;28;23653;-68
2023/07/19 11:07:51;;;;;;;16.23;15.63;;;26.90;99.90;;;;;;5025017;28;20472;-67
2023/07/19 11:10:19;;;;;;;16.13;15.53;;;26.60;99.90;;;;;;5020498;28;20580;-66
2023/07/19 11:12:48;;;;;;;15.07;14.57;;;26.70;99.90;;;;;;5013933;28;20965;-67
2023/07/19 11:15:16;;;;;;;16.20;15.60;;;27.20;99.90;;;;;;5024078;28;20483;-68
2023/07/19 11:17:44;;;;;;;15.00;14.50;;;27.80;99.90;;;;;;5019059;28;20516;-67
2023/07/19 11:20:12;;;;;;;16.10;15.50;;;27.60;99.90;;;;;;5023604;28;20956;-67
2023/07/19 11:22:40;;;;;;;15.90;15.40;;;27.70;99.90;;;;;;5019990;28;20580;-68
2023/07/19 11:25:12;;;;;;;15.70;15.20;;;27.30;99.90;;;;;;5020280;28;20476;-68
2023/07/19 11:27:42;;;;;;;15.20;14.70;;;26.90;99.90;;;;;;5019155;28;21126;-67
2023/07/19 11:30:09;;;;;;;15.60;15.10;;;27.80;99.90;;;;;;5024802;28;20460;-67
2023/07/19 11:32:36;;;;;;;15.03;14.53;;;28.50;99.90;;;;;;5022043;28;20457;-68
2023/07/19 11:35:04;;;;;;;15.17;14.53;;;28.90;99.90;;;;;;5025892;28;20576;-68
2023/07/19 11:37:33;;;;;;;15.37;14.87;;;28.40;99.90;;;;;;5025331;28;20452;-68
2023/07/19 11:40:05;;;;;;;15.60;15.10;;;27.90;99.90;;;;;;5025942;28;20468;-68
2023/07/19 11:42:45;;;;;;;15.70;15.20;;;28.40;99.90;;;;;;5028244;28;20546;-68
2023/07/19 11:45:14;;;;;;;15.60;15.10;;;27.90;99.90;;;;;;5019802;28;21264;-67
2023/07/19 11:47:42;;;;;;;15.80;15.30;;;27.90;99.90;;;;;;5024630;28;20464;-68
2023/07/19 11:50:10;;;;;;;15.27;14.77;;;27.90;99.90;;;;;;5025720;28;20571;-68
2023/07/19 11:52:48;;;;;;;14.87;14.37;;;27.60;99.90;;;;;;5022314;28;20457;-68
2023/07/19 11:55:17;;;;;;;15.10;14.60;;;27.80;99.90;;;;;;5028966;28;20456;-68
2023/07/19 11:57:45;;;;;;;15.87;15.27;;;27.40;99.90;;;;;;5028339;28;20472;-68
2023/07/19 12:00:14;;;;;;;14.50;14.00;;;27.00;99.90;;;;;;5027837;28;20673;-68
2023/07/19 12:02:43;;;;;;;14.43;14.00;;;27.20;99.90;;;;;;5023328;28;20595;-68
2023/07/19 12:05:11;;;;;;;15.43;14.93;;;27.90;98.90;;;;;;5016938;28;21038;-68
2023/07/19 12:07:38;;;;;;;15.03;14.53;;;27.90;97.90;;;;;;5024947;28;20469;-68
2023/07/19 12:10:06;;;;;;;14.77;14.27;;;27.00;98.20;;;;;;5026686;28;20491;-68
2023/07/19 12:12:36;;;;;;;15.30;14.80;;;27.60;98.10;;;;;;5026016;28;20473;-69
2023/07/19 12:15:06;;;;;;;14.97;14.47;;;27.50;99.10;;;;;;5026596;28;20488;-69
2023/07/19 12:17:34;;;;;;;15.23;14.73;;;28.00;97.90;;;;;;5025258;28;20468;-69
2023/07/19 12:20:02;;;;;;;14.50;14.03;;;28.10;97.40;;;;;;5020408;28;20465;-68
2023/07/19 12:22:30;;;;;;;14.70;14.20;;;28.80;96.90;;;;;;5025450;28;20476;-69
2023/07/19 12:24:58;;;;;;;15.40;14.90;;;29.00;96.20;;;;;;5027718;28;20472;-68
2023/07/19 12:27:26;;;;;;;15.63;15.13;;;28.90;96.80;;;;;;5025161;28;20479;-69
2023/07/19 12:29:55;;;;;;;15.20;14.70;;;28.10;96.40;;;;;;5021860;28;20469;-68
2023/07/19 12:32:22;;;;;;;14.33;13.93;;;27.50;97.20;;;;;;5022795;28;20534;-69
2023/07/19 12:34:49;;;;;;;15.13;14.63;;;27.90;97.60;;;;;;5027308;28;20841;-68
2023/07/19 12:37:16;;;;;;;15.00;14.50;;;27.30;97.50;;;;;;5020730;28;20489;-68
2023/07/19 12:39:43;;;;;;;15.57;15.07;;;27.50;98.00;;;;;;5027163;28;20461;-68